This is the latest recevied weather packets stored in our database for station/object KE8CZD. If no packets are shown the sender has not sent any weather packets the latest 1 day(s).
| Time | Temp. | Humidity | Pressure | Rain* | Wind** | Luminosity | Snow |
|---|---|---|---|---|---|---|---|
| 1778002604 | 11.67° C | 71% | 1003.6 hPa | 0 mm | 0 m/s | - | - |
| 1778002244 | 11.67° C | 70% | 1003.5 hPa | 0 mm | 0 m/s | - | - |
| 1778001885 | 12.22° C | 71% | 1003.3 hPa | 0 mm | 0 m/s | - | - |
| 1778001524 | 11.67° C | 72% | 1003.3 hPa | 0 mm | 0 m/s | - | - |
| 1778001164 | 11.67° C | 74% | 1003.5 hPa | 0 mm | 0.45 m/s, 284° | - | - |
| 1778000805 | 11.67° C | 77% | 1003.5 hPa | 0 mm | 0.45 m/s, 194° | - | - |
| 1778000445 | 11.11° C | 79% | 1003.7 hPa | 0 mm | 0 m/s | - | - |
| 1778000084 | 11.11° C | 79% | 1003.8 hPa | 0 mm | 0 m/s | - | - |
| 1777999724 | 10.56° C | 79% | 1003.9 hPa | 0 mm | 0 m/s | - | - |
| 1777999364 | 11.11° C | 80% | 1004 hPa | 0 mm | 0 m/s | - | - |
| 1777999004 | 11.11° C | 79% | 1004.1 hPa | 0 mm | 0 m/s | - | - |
| 1777998644 | 10.56° C | 78% | 1004.1 hPa | 0 mm | 0 m/s | - | - |
| 1777998284 | 10.56° C | 74% | 1004 hPa | 0 mm | 0 m/s | - | - |
| 1777997924 | 11.11° C | 73% | 1004 hPa | 0 mm | 0 m/s | - | - |
| 1777997564 | 11.11° C | 74% | 1004.1 hPa | 0 mm | 0 m/s | - | - |
| 1777997205 | 11.11° C | 72% | 1003.9 hPa | 0 mm | 0 m/s | - | - |
| 1777996844 | 11.11° C | 70% | 1004 hPa | 0 mm | 0 m/s | - | - |
| 1777996484 | 11.67° C | 68% | 1003.8 hPa | 0 mm | 0.45 m/s, 293° | - | - |
| 1777996124 | 11.67° C | 65% | 1003.6 hPa | 0 mm | 0.89 m/s, 285° | - | - |
| 1777995764 | 12.22° C | 62% | 1003.5 hPa | 0 mm | 0.45 m/s, 297° | - | - |
| 1777995404 | 12.78° C | 61% | 1003.3 hPa | 0 mm | 0.45 m/s, 285° | - | - |
| 1777995044 | 13.33° C | 60% | 1003.4 hPa | 0 mm | 0.45 m/s, 298° | - | - |
| 1777994684 | 13.33° C | 59% | 1002.9 hPa | 0 mm | 0.45 m/s, 290° | - | - |
| 1777993964 | 13.33° C | 58% | 1002.5 hPa | 0 mm | 0.45 m/s, 275° | - | - |
| 1777993604 | 13.89° C | 57% | 1002.6 hPa | 0 mm | 0 m/s | - | - |
* Rain latest hour (hover to see other rain measurements)
** Current wind speed in m/s (hover to see current wind gust speed)